Time;durP1;ratioP1;P1;durP2;ratioP2;P2;SDS_P1;SDS_P2;PMS_P1;PMS_P2;Temp;Humidity;BMP_temperature;BMP_pressure;BME280_temperature;BME280_humidity;BME280_pressure;Samples;Min_cycle;Max_cycle;Signal;HPM_P1;HPM_P2
2022/04/21 00:02:08;;;;;;;8.57;2.80;;;;;;;;;;5011215;28;20057;-68
2022/04/21 00:04:34;;;;;;;5.30;2.97;;;;;;;;;;5002539;28;20151;-68
2022/04/21 00:06:59;;;;;;;10.32;2.78;;;;;;;;;;5013492;28;20037;-68
2022/04/21 00:09:24;;;;;;;7.18;2.90;;;;;;;;;;5013346;28;20044;-68
2022/04/21 00:11:51;;;;;;;6.30;3.00;;;;;;;;;;5014561;28;20109;-67
2022/04/21 00:14:17;;;;;;;5.03;2.40;;;;;;;;;;5013277;28;20026;-67
2022/04/21 00:16:42;;;;;;;5.80;2.83;;;;;;;;;;5013347;28;20034;-68
2022/04/21 00:19:07;;;;;;;7.35;3.30;;;;;;;;;;5013240;28;20061;-68
2022/04/21 00:23:26;;;;;;;6.43;2.75;;;;;;;;;;5013086;28;20091;-68
2022/04/21 00:24:18;;;;;;;7.65;3.17;;;;;;;;;;5012696;28;20042;-68
2022/04/21 00:26:44;;;;;;;8.50;3.15;;;;;;;;;;5012754;28;20040;-67
2022/04/21 00:29:09;;;;;;;7.15;3.10;;;;;;;;;;5013180;28;20080;-67
2022/04/21 00:31:34;;;;;;;5.63;2.90;;;;;;;;;;5013098;28;20458;-68
2022/04/21 00:34:00;;;;;;;7.00;2.53;;;;;;;;;;5013261;28;20041;-68
2022/04/21 00:36:25;;;;;;;5.65;2.92;;;;;;;;;;5013091;28;20042;-68
2022/04/21 00:38:50;;;;;;;4.25;2.30;;;;;;;;;;5013369;28;20034;-68
2022/04/21 00:41:16;;;;;;;10.30;2.55;;;;;;;;;;5013011;28;20038;-68
2022/04/21 00:43:41;;;;;;;5.50;2.47;;;;;;;;;;5012961;28;20120;-68
2022/04/21 00:46:13;;;;;;;5.95;2.50;;;;;;;;;;5013237;28;20037;-67
2022/04/21 00:48:38;;;;;;;4.88;2.28;;;;;;;;;;5027958;28;20493;-68
2022/04/21 00:51:04;;;;;;;6.75;2.30;;;;;;;;;;5012848;28;20069;-67
2022/04/21 00:53:29;;;;;;;3.33;2.05;;;;;;;;;;5028237;28;20488;-68
2022/04/21 00:55:55;;;;;;;6.15;2.53;;;;;;;;;;5011858;28;20108;-68
2022/04/21 00:58:20;;;;;;;4.25;1.90;;;;;;;;;;5028215;28;20115;-68
2022/04/21 01:00:46;;;;;;;4.97;2.50;;;;;;;;;;5012967;28;20058;-68
2022/04/21 01:03:14;;;;;;;4.90;2.05;;;;;;;;;;5012949;28;20093;-68
2022/04/21 01:05:40;;;;;;;5.38;2.28;;;;;;;;;;5011679;28;20121;-68
2022/04/21 01:08:07;;;;;;;5.03;2.30;;;;;;;;;;5014312;28;20564;-68
2022/04/21 01:10:37;;;;;;;4.68;2.40;;;;;;;;;;5023262;28;20110;-68
2022/04/21 01:13:07;;;;;;;4.20;2.42;;;;;;;;;;5031901;28;20476;-68
2022/04/21 01:15:33;;;;;;;5.07;2.03;;;;;;;;;;5016175;28;20030;-68
2022/04/21 01:17:58;;;;;;;7.88;2.00;;;;;;;;;;5016296;28;20057;-68
2022/04/21 01:20:25;;;;;;;3.60;2.20;;;;;;;;;;5014404;28;20045;-67
2022/04/21 01:22:51;;;;;;;4.43;2.28;;;;;;;;;;5016320;28;20034;-68
2022/04/21 01:25:17;;;;;;;4.30;2.00;;;;;;;;;;5014806;28;20034;-67
2022/04/21 01:27:44;;;;;;;6.18;2.33;;;;;;;;;;5015974;28;20383;-68
2022/04/21 01:30:11;;;;;;;5.75;2.50;;;;;;;;;;5016045;28;20022;-68
2022/04/21 01:32:37;;;;;;;3.20;1.80;;;;;;;;;;5015862;28;20052;-68
2022/04/21 01:35:07;;;;;;;3.50;2.20;;;;;;;;;;5016058;28;20148;-68
2022/04/21 01:43:01;;;;;;;4.43;2.10;;;;;;;;;;5011252;28;19919;-68
2022/04/21 01:45:26;;;;;;;4.75;2.20;;;;;;;;;;5015853;28;20041;-68
2022/04/21 01:47:52;;;;;;;4.20;2.17;;;;;;;;;;5015640;28;20069;-68
2022/04/21 01:50:17;;;;;;;3.20;2.00;;;;;;;;;;5015456;28;20030;-67
2022/04/21 01:52:42;;;;;;;4.38;2.20;;;;;;;;;;5015714;28;20537;-68
2022/04/21 01:55:08;;;;;;;4.63;1.83;;;;;;;;;;5014308;28;20041;-68
2022/04/21 01:57:34;;;;;;;3.67;1.98;;;;;;;;;;5015526;28;20393;-68
2022/04/21 02:00:00;;;;;;;7.55;2.10;;;;;;;;;;5014990;28;20046;-67
2022/04/21 02:02:26;;;;;;;5.32;2.15;;;;;;;;;;5014780;28;20483;-68
2022/04/21 02:04:51;;;;;;;3.55;2.10;;;;;;;;;;5015577;28;20026;-68
2022/04/21 02:07:16;;;;;;;5.10;2.05;;;;;;;;;;5015161;28;20037;-67
2022/04/21 02:09:42;;;;;;;5.80;2.55;;;;;;;;;;5015359;28;20068;-67
2022/04/21 02:12:08;;;;;;;4.97;2.25;;;;;;;;;;5016771;28;20496;-67
2022/04/21 02:14:37;;;;;;;3.40;2.00;;;;;;;;;;5015232;28;20038;-67
2022/04/21 02:17:05;;;;;;;5.80;2.20;;;;;;;;;;5014870;28;20116;-67
2022/04/21 02:19:30;;;;;;;4.03;2.10;;;;;;;;;;5015175;28;20089;-67
2022/04/21 02:21:56;;;;;;;8.32;2.60;;;;;;;;;;5015038;28;20477;-68
2022/04/21 02:24:21;;;;;;;6.00;2.03;;;;;;;;;;5015062;28;20145;-67
2022/04/21 02:26:47;;;;;;;7.00;2.28;;;;;;;;;;5014987;28;20450;-67
2022/04/21 02:29:12;;;;;;;3.60;2.28;;;;;;;;;;5014761;28;20045;-67
2022/04/21 02:31:38;;;;;;;4.38;2.53;;;;;;;;;;5012107;28;20092;-67
2022/04/21 02:34:03;;;;;;;5.15;1.92;;;;;;;;;;5014892;28;20496;-67
2022/04/21 02:36:28;;;;;;;3.45;2.13;;;;;;;;;;5014785;28;20037;-68
2022/04/21 02:38:54;;;;;;;5.05;2.38;;;;;;;;;;5014825;28;20041;-68
2022/04/21 02:41:20;;;;;;;3.10;2.15;;;;;;;;;;5014292;28;20169;-68
2022/04/21 02:43:45;;;;;;;4.72;2.33;;;;;;;;;;5014746;28;20045;-68
2022/04/21 02:46:13;;;;;;;5.90;2.33;;;;;;;;;;5014452;28;20042;-68
2022/04/21 02:48:39;;;;;;;5.47;2.50;;;;;;;;;;5029626;28;20127;-67
2022/04/21 02:51:04;;;;;;;5.45;2.67;;;;;;;;;;5013206;28;20030;-68
2022/04/21 02:59:00;;;;;;;4.30;2.50;;;;;;;;;;5006743;28;20524;-68
2022/04/21 03:01:26;;;;;;;5.28;2.30;;;;;;;;;;5012876;28;20095;-68
2022/04/21 03:03:52;;;;;;;7.20;2.58;;;;;;;;;;5014277;28;20397;-68
2022/04/21 03:06:18;;;;;;;4.03;2.45;;;;;;;;;;5029433;28;20021;-68
2022/04/21 03:08:43;;;;;;;5.72;2.65;;;;;;;;;;5014203;28;20038;-67
2022/04/21 03:11:08;;;;;;;17.75;2.72;;;;;;;;;;5016535;28;20100;-67
2022/04/21 03:13:34;;;;;;;5.32;2.40;;;;;;;;;;5014155;28;20033;-67
2022/04/21 03:15:59;;;;;;;3.65;2.03;;;;;;;;;;5014120;28;20109;-68
2022/04/21 03:18:25;;;;;;;4.60;2.30;;;;;;;;;;5013918;28;20044;-67
2022/04/21 03:26:18;;;;;;;5.93;2.22;;;;;;;;;;5010569;28;20060;-67
2022/04/21 03:28:43;;;;;;;6.55;2.42;;;;;;;;;;5013861;28;20029;-68
2022/04/21 03:31:09;;;;;;;6.25;2.13;;;;;;;;;;5012996;28;20048;-67
2022/04/21 03:33:34;;;;;;;5.07;2.30;;;;;;;;;;5013450;28;20041;-67
2022/04/21 03:36:00;;;;;;;5.70;2.30;;;;;;;;;;5013665;28;20034;-67
2022/04/21 03:38:25;;;;;;;4.70;2.35;;;;;;;;;;5012564;28;20121;-68
2022/04/21 03:40:51;;;;;;;3.00;1.98;;;;;;;;;;5013913;28;20036;-68
2022/04/21 03:43:16;;;;;;;5.47;2.40;;;;;;;;;;5013299;28;20040;-68
2022/04/21 03:45:41;;;;;;;5.57;2.60;;;;;;;;;;5013837;28;20042;-68
2022/04/21 03:48:07;;;;;;;6.10;2.00;;;;;;;;;;5013277;28;20121;-68
2022/04/21 03:50:34;;;;;;;7.57;2.45;;;;;;;;;;5013495;28;20022;-67
2022/04/21 03:52:59;;;;;;;8.32;2.47;;;;;;;;;;5013567;28;20048;-67
2022/04/21 03:55:25;;;;;;;5.43;2.58;;;;;;;;;;5013463;28;20029;-67
2022/04/21 03:57:51;;;;;;;6.28;2.35;;;;;;;;;;5013627;28;20501;-67
2022/04/21 04:00:16;;;;;;;6.32;2.33;;;;;;;;;;5012423;28;20472;-67
2022/04/21 04:02:42;;;;;;;5.07;2.28;;;;;;;;;;5013208;28;20485;-67
2022/04/21 04:05:07;;;;;;;5.10;2.40;;;;;;;;;;5013379;28;20091;-67
2022/04/21 04:13:01;;;;;;;6.78;2.55;;;;;;;;;;5011260;28;20555;-68
2022/04/21 04:15:26;;;;;;;6.72;2.33;;;;;;;;;;5012312;28;20030;-67
2022/04/21 04:17:52;;;;;;;4.63;2.50;;;;;;;;;;5013352;28;20045;-68
2022/04/21 04:20:17;;;;;;;5.68;3.03;;;;;;;;;;5013118;28;20018;-67
2022/04/21 04:22:42;;;;;;;4.35;2.45;;;;;;;;;;5006000;28;20447;-67
2022/04/21 04:25:09;;;;;;;7.60;2.80;;;;;;;;;;5013003;28;20377;-67
2022/04/21 04:27:36;;;;;;;10.32;3.42;;;;;;;;;;5013003;28;20022;-67
2022/04/21 04:30:03;;;;;;;4.72;2.58;;;;;;;;;;5013095;28;20030;-67
2022/04/21 04:32:28;;;;;;;7.78;3.33;;;;;;;;;;5013057;28;20066;-67
2022/04/21 04:34:54;;;;;;;5.15;2.50;;;;;;;;;;5013178;28;20128;-67
2022/04/21 04:37:19;;;;;;;4.38;2.58;;;;;;;;;;5013207;28;20021;-67
2022/04/21 04:39:44;;;;;;;4.78;2.60;;;;;;;;;;5013112;28;20033;-68
2022/04/21 04:42:21;;;;;;;6.50;2.95;;;;;;;;;;5013296;28;20042;-67
2022/04/21 04:44:48;;;;;;;5.78;2.88;;;;;;;;;;5017082;28;20018;-67
2022/04/21 04:47:14;;;;;;;5.20;2.88;;;;;;;;;;5016824;28;20084;-67
2022/04/21 04:49:40;;;;;;;6.57;2.88;;;;;;;;;;5016753;28;20034;-67
2022/04/21 04:52:06;;;;;;;8.05;3.08;;;;;;;;;;5016788;28;20034;-67
2022/04/21 04:54:31;;;;;;;6.60;2.65;;;;;;;;;;5016625;28;20044;-67
2022/04/21 04:56:57;;;;;;;6.32;2.67;;;;;;;;;;5016434;28;20096;-68
2022/04/21 04:59:23;;;;;;;15.73;3.22;;;;;;;;;;5016636;28;20528;-67
2022/04/21 05:01:48;;;;;;;6.43;2.78;;;;;;;;;;5016548;28;20121;-67
2022/04/21 05:04:18;;;;;;;6.05;2.97;;;;;;;;;;5016569;28;20050;-67
2022/04/21 05:06:54;;;;;;;4.70;2.75;;;;;;;;;;5016322;28;20474;-67
2022/04/21 05:09:22;;;;;;;4.85;2.65;;;;;;;;;;5016445;28;20042;-68
2022/04/21 05:11:54;;;;;;;7.25;3.03;;;;;;;;;;5025389;28;20034;-68
2022/04/21 05:14:20;;;;;;;3.95;2.60;;;;;;;;;;5016194;28;20045;-68
2022/04/21 05:16:46;;;;;;;9.82;2.90;;;;;;;;;;5016164;28;20034;-67
2022/04/21 05:19:13;;;;;;;9.38;2.35;;;;;;;;;;5016287;28;20075;-67
2022/04/21 05:21:39;;;;;;;4.80;2.70;;;;;;;;;;5015912;28;20474;-67
2022/04/21 05:24:05;;;;;;;5.55;2.50;;;;;;;;;;5016206;28;20088;-67
2022/04/21 05:26:32;;;;;;;5.45;2.90;;;;;;;;;;5016104;28;20493;-67
2022/04/21 05:29:00;;;;;;;4.38;2.63;;;;;;;;;;5016048;28;20038;-67
2022/04/21 05:31:26;;;;;;;13.68;2.63;;;;;;;;;;5015954;28;20061;-67
2022/04/21 05:33:54;;;;;;;8.68;3.10;;;;;;;;;;5014939;28;20424;-68
2022/04/21 05:36:20;;;;;;;5.78;3.13;;;;;;;;;;5015538;28;20541;-68
2022/04/21 05:38:46;;;;;;;7.20;3.28;;;;;;;;;;5031333;28;20030;-68
2022/04/21 05:41:13;;;;;;;6.28;3.25;;;;;;;;;;5015696;28;20029;-68
2022/04/21 05:43:44;;;;;;;8.98;4.65;;;;;;;;;;5015604;28;20493;-68
2022/04/21 05:46:11;;;;;;;7.47;3.05;;;;;;;;;;5014379;28;20054;-68
2022/04/21 05:48:37;;;;;;;9.07;3.22;;;;;;;;;;5015441;28;20033;-68
2022/04/21 05:51:06;;;;;;;7.30;3.28;;;;;;;;;;5015542;28;20096;-68
2022/04/21 05:53:37;;;;;;;6.53;3.03;;;;;;;;;;5015218;28;20073;-68
2022/04/21 05:56:07;;;;;;;7.78;3.55;;;;;;;;;;5015582;28;20378;-68
2022/04/21 05:58:33;;;;;;;9.48;3.42;;;;;;;;;;5030960;28;20041;-68
2022/04/21 06:01:00;;;;;;;10.95;3.05;;;;;;;;;;5014883;28;20444;-68
2022/04/21 06:03:25;;;;;;;8.40;3.20;;;;;;;;;;5015510;28;20038;-68
2022/04/21 06:05:51;;;;;;;6.13;3.60;;;;;;;;;;5015524;28;20052;-68
2022/04/21 06:08:17;;;;;;;6.82;3.88;;;;;;;;;;5015269;28;20037;-68
2022/04/21 06:10:42;;;;;;;8.82;4.15;;;;;;;;;;5018200;28;20038;-68
2022/04/21 06:13:08;;;;;;;7.18;3.53;;;;;;;;;;5015290;28;20045;-68
2022/04/21 06:15:33;;;;;;;8.30;3.83;;;;;;;;;;5015051;28;20524;-68
2022/04/21 06:17:59;;;;;;;7.22;3.75;;;;;;;;;;5015154;28;20075;-68
2022/04/21 06:20:28;;;;;;;11.23;4.57;;;;;;;;;;5014867;28;20087;-68
2022/04/21 06:22:54;;;;;;;9.35;3.78;;;;;;;;;;5015229;28;20030;-68
2022/04/21 06:25:21;;;;;;;8.88;3.70;;;;;;;;;;5015045;28;20037;-68
2022/04/21 06:27:46;;;;;;;11.88;4.07;;;;;;;;;;5014293;28;20099;-68
2022/04/21 06:30:12;;;;;;;7.65;3.65;;;;;;;;;;5014401;28;20424;-68
2022/04/21 06:32:37;;;;;;;7.78;4.18;;;;;;;;;;5014603;28;20109;-68
2022/04/21 06:35:04;;;;;;;13.50;3.85;;;;;;;;;;5014481;28;20041;-68
2022/04/21 06:37:29;;;;;;;12.23;4.32;;;;;;;;;;5013193;28;20068;-68
2022/04/21 06:39:55;;;;;;;14.55;4.25;;;;;;;;;;5014095;28;20438;-68
2022/04/21 06:42:21;;;;;;;9.35;4.50;;;;;;;;;;5014540;28;20161;-68
2022/04/21 06:50:14;;;;;;;9.10;4.35;;;;;;;;;;5013774;28;20405;-68
2022/04/21 06:52:39;;;;;;;8.82;4.57;;;;;;;;;;5014381;28;20034;-68
2022/04/21 06:55:05;;;;;;;9.98;4.22;;;;;;;;;;5014277;28;20037;-68
2022/04/21 06:57:30;;;;;;;9.90;4.88;;;;;;;;;;5013030;28;20125;-68
2022/04/21 06:59:55;;;;;;;8.98;4.47;;;;;;;;;;5011682;28;20084;-68
2022/04/21 07:02:37;;;;;;;12.02;4.38;;;;;;;;;;5012991;28;20469;-68
2022/04/21 07:05:04;;;;;;;11.23;4.15;;;;;;;;;;5013619;28;20105;-68
2022/04/21 07:07:30;;;;;;;10.73;4.55;;;;;;;;;;5013781;28;20041;-68
2022/04/21 07:09:56;;;;;;;10.57;4.18;;;;;;;;;;5015617;28;20038;-68
2022/04/21 07:12:31;;;;;;;11.85;4.63;;;;;;;;;;5017252;28;20040;-68
2022/04/21 07:14:58;;;;;;;7.95;4.13;;;;;;;;;;5015234;28;20073;-68
2022/04/21 07:17:24;;;;;;;14.23;4.63;;;;;;;;;;5029045;28;20050;-69
2022/04/21 07:19:49;;;;;;;12.85;4.85;;;;;;;;;;5006241;28;20564;-69
2022/04/21 07:22:15;;;;;;;13.88;4.90;;;;;;;;;;5013688;28;20121;-68
2022/04/21 07:24:40;;;;;;;10.20;5.18;;;;;;;;;;5013783;28;20073;-68
2022/04/21 07:27:05;;;;;;;12.57;5.43;;;;;;;;;;5013983;28;20045;-68
2022/04/21 07:29:31;;;;;;;9.43;5.35;;;;;;;;;;5021615;28;20406;-69
2022/04/21 07:31:56;;;;;;;14.27;5.07;;;;;;;;;;5034437;28;20121;-69
2022/04/21 07:34:23;;;;;;;10.63;5.28;;;;;;;;;;5042317;28;20040;-69
2022/04/21 07:36:49;;;;;;;9.85;4.85;;;;;;;;;;5039610;28;20033;-69
2022/04/21 07:39:14;;;;;;;9.73;5.00;;;;;;;;;;5034369;28;20382;-69
2022/04/21 07:41:40;;;;;;;14.30;5.85;;;;;;;;;;5035275;28;20460;-69
2022/04/21 07:44:05;;;;;;;10.77;5.50;;;;;;;;;;5037435;28;20033;-69
2022/04/21 07:46:32;;;;;;;10.68;5.35;;;;;;;;;;5035412;28;20032;-69
2022/04/21 07:51:42;;;;;;;10.95;5.35;;;;;;;;;;5038942;28;20615;-69
2022/04/21 07:54:07;;;;;;;12.10;6.47;;;;;;;;;;5043687;28;20037;-69
2022/04/21 07:56:33;;;;;;;12.55;6.30;;;;;;;;;;5033410;28;20037;-69
2022/04/21 07:58:58;;;;;;;11.50;5.93;;;;;;;;;;5041382;28;20361;-69
2022/04/21 08:01:24;;;;;;;16.77;6.93;;;;;;;;;;5041835;28;20037;-69
2022/04/21 08:03:49;;;;;;;13.05;5.88;;;;;;;;;;5040783;28;20069;-69
2022/04/21 08:06:15;;;;;;;13.95;6.10;;;;;;;;;;5044479;28;20082;-69
2022/04/21 08:08:40;;;;;;;10.65;6.32;;;;;;;;;;5036062;28;20037;-69
2022/04/21 08:11:07;;;;;;;14.80;7.13;;;;;;;;;;5039173;28;20389;-69
2022/04/21 08:13:33;;;;;;;11.98;5.97;;;;;;;;;;5033078;28;20037;-69
2022/04/21 08:15:58;;;;;;;10.63;6.10;;;;;;;;;;5032669;28;20052;-69
2022/04/21 08:18:24;;;;;;;10.63;6.55;;;;;;;;;;5034897;28;20061;-69
2022/04/21 08:20:52;;;;;;;12.95;6.22;;;;;;;;;;5036468;28;20385;-69
2022/04/21 08:23:17;;;;;;;16.13;7.47;;;;;;;;;;5036893;28;20049;-69
2022/04/21 08:33:54;;;;;;;13.60;7.00;;;;;;;;;;5032826;28;20098;-69
2022/04/21 08:36:20;;;;;;;13.00;6.88;;;;;;;;;;5033272;28;20112;-69
2022/04/21 08:38:45;;;;;;;13.50;6.70;;;;;;;;;;5035923;28;20029;-69
2022/04/21 08:41:15;;;;;;;13.30;7.40;;;;;;;;;;5028414;28;20469;-69
2022/04/21 08:43:40;;;;;;;12.38;6.75;;;;;;;;;;5034699;28;20114;-69
2022/04/21 08:46:08;;;;;;;11.10;6.80;;;;;;;;;;5054752;28;20056;-69
2022/04/21 08:48:37;;;;;;;14.35;7.00;;;;;;;;;;5032348;28;20493;-69
2022/04/21 08:51:08;;;;;;;13.52;7.45;;;;;;;;;;5035412;28;20037;-69
2022/04/21 08:53:33;;;;;;;14.68;7.85;;;;;;;;;;5051634;28;20044;-69
2022/04/21 08:55:59;;;;;;;13.50;7.75;;;;;;;;;;5038715;28;20046;-69
2022/04/21 08:58:25;;;;;;;16.20;8.27;;;;;;;;;;5039787;28;20586;-69
2022/04/21 09:00:53;;;;;;;16.40;7.82;;;;;;;;;;5021537;28;20042;-69
2022/04/21 09:03:20;;;;;;;13.50;7.13;;;;;;;;;;5029355;28;20155;-70
2022/04/21 09:05:45;;;;;;;20.52;7.82;;;;;;;;;;5032989;28;20053;-69
2022/04/21 09:08:19;;;;;;;12.90;7.63;;;;;;;;;;5032461;28;20021;-69
2022/04/21 09:10:44;;;;;;;16.10;8.35;;;;;;;;;;5032339;28;20052;-69
2022/04/21 09:13:10;;;;;;;15.88;8.20;;;;;;;;;;5032328;28;20030;-69
2022/04/21 09:15:43;;;;;;;14.50;8.25;;;;;;;;;;5021986;28;20497;-69
2022/04/21 09:18:09;;;;;;;;;;;;;;;;;;5012741;28;20437;-69
2022/04/21 09:20:39;;;;;;;13.65;7.60;;;;;;;;;;5012251;28;20040;-69
2022/04/21 09:23:14;;;;;;;13.07;7.50;;;;;;;;;;5012119;28;20389;-69
2022/04/21 09:25:50;;;;;;;21.08;8.10;;;;;;;;;;5012263;28;20046;-69
2022/04/21 09:28:27;;;;;;;15.00;8.07;;;;;;;;;;5011212;28;20113;-70
2022/04/21 09:30:57;;;;;;;17.75;7.57;;;;;;;;;;5029333;28;21016;-70
2022/04/21 09:33:33;;;;;;;14.30;8.60;;;;;;;;;;5012041;28;20136;-69
2022/04/21 09:36:06;;;;;;;17.48;9.20;;;;;;;;;;5006625;28;20037;-69
2022/04/21 09:38:33;;;;;;;;;;;;;;;;;;5012338;28;20049;-68
2022/04/21 09:41:10;;;;;;;14.55;8.48;;;;;;;;;;5012186;28;20278;-69
2022/04/21 09:43:37;;;;;;;14.18;8.27;;;;;;;;;;5012415;28;20033;-69
2022/04/21 09:46:16;;;;;;;15.05;7.68;;;;;;;;;;5012331;28;20389;-69
2022/04/21 09:48:43;;;;;;;16.63;7.53;;;;;;;;;;5011031;28;20416;-69
2022/04/21 09:51:12;;;;;;;14.35;7.65;;;;;;;;;;5012394;28;20030;-68
2022/04/21 09:53:48;;;;;;;12.82;7.75;;;;;;;;;;5012244;28;20044;-69
2022/04/21 09:56:14;;;;;;;14.65;7.70;;;;;;;;;;5012556;28;20049;-69
2022/04/21 09:58:39;;;;;;;13.15;7.38;;;;;;;;;;5011605;28;20113;-69
2022/04/21 10:01:05;;;;;;;12.05;7.50;;;;;;;;;;5011330;28;20476;-69
2022/04/21 10:03:34;;;;;;;12.40;7.50;;;;;;;;;;5011988;28;20485;-70
2022/04/21 10:06:00;;;;;;;16.60;8.23;;;;;;;;;;5011800;28;20048;-69
2022/04/21 10:08:28;;;;;;;17.02;7.75;;;;;;;;;;5011018;28;20535;-69
2022/04/21 10:10:54;;;;;;;17.50;8.95;;;;;;;;;;5013286;28;20050;-69
2022/04/21 10:13:20;;;;;;;13.80;7.15;;;;;;;;;;5021792;28;20048;-68
2022/04/21 10:15:45;;;;;;;12.95;6.93;;;;;;;;;;5012459;28;20052;-69
2022/04/21 10:18:15;;;;;;;13.10;7.65;;;;;;;;;;5019873;28;20043;-69
2022/04/21 10:20:41;;;;;;;12.55;6.28;;;;;;;;;;5019372;28;20394;-69
2022/04/21 10:23:11;;;;;;;13.20;7.90;;;;;;;;;;5019841;28;20167;-68
2022/04/21 10:25:38;;;;;;;15.80;7.47;;;;;;;;;;5017773;28;20060;-69
2022/04/21 10:28:34;;;;;;;12.45;7.03;;;;;;;;;;5020391;28;20048;-69
2022/04/21 10:31:33;;;;;;;10.68;6.43;;;;;;;;;;5011617;28;20092;-68
2022/04/21 10:34:00;;;;;;;12.80;6.93;;;;;;;;;;5003356;28;20168;-68
2022/04/21 10:36:35;;;;;;;14.23;7.13;;;;;;;;;;5016596;28;20064;-68
2022/04/21 10:39:31;;;;;;;17.48;7.20;;;;;;;;;;5020470;28;20373;-68
2022/04/21 10:42:07;;;;;;;12.35;6.28;;;;;;;;;;4997147;28;20054;-68
2022/04/21 10:44:43;;;;;;;13.13;6.80;;;;;;;;;;5003458;28;20029;-68
2022/04/21 10:47:37;;;;;;;12.18;6.55;;;;;;;;;;5027044;28;20386;-68
2022/04/21 10:50:11;;;;;;;;;;;;;;;;;;5012372;28;20125;-68
2022/04/21 10:57:48;;;;;;;13.00;6.55;;;;;;;;;;5010941;28;20619;-68
2022/04/21 11:00:25;;;;;;;15.60;6.68;;;;;;;;;;5009576;28;20050;-68
2022/04/21 11:03:04;;;;;;;10.77;5.85;;;;;;;;;;5011314;28;20038;-68
2022/04/21 11:05:33;;;;;;;13.85;6.30;;;;;;;;;;5010823;28;20069;-68
2022/04/21 11:08:03;;;;;;;15.43;7.07;;;;;;;;;;5010984;28;20053;-68
2022/04/21 11:10:44;;;;;;;11.15;6.57;;;;;;;;;;5017099;28;20025;-68
2022/04/21 11:13:11;;;;;;;11.10;6.22;;;;;;;;;;5007873;28;20442;-68
2022/04/21 11:15:53;;;;;;;14.02;6.90;;;;;;;;;;5009893;28;20120;-68
2022/04/21 11:18:19;;;;;;;10.73;5.05;;;;;;;;;;5011053;28;20038;-68
2022/04/21 11:20:47;;;;;;;11.75;6.47;;;;;;;;;;5010835;28;20034;-67
2022/04/21 11:23:45;;;;;;;16.35;7.07;;;;;;;;;;5002340;28;20088;-68
2022/04/21 11:26:11;;;;;;;17.80;6.22;;;;;;;;;;5009371;28;20041;-68
2022/04/21 11:28:41;;;;;;;15.35;7.05;;;;;;;;;;5010351;28;20048;-67
2022/04/21 11:31:07;;;;;;;10.57;5.53;;;;;;;;;;5007255;28;20469;-68
2022/04/21 11:33:33;;;;;;;17.88;7.03;;;;;;;;;;5004582;28;20083;-68
2022/04/21 11:36:03;;;;;;;14.38;6.78;;;;;;;;;;5006048;28;20614;-68
2022/04/21 11:38:29;;;;;;;13.25;5.85;;;;;;;;;;5006006;28;20029;-68
2022/04/21 11:40:56;;;;;;;17.13;6.57;;;;;;;;;;5008989;28;20049;-67
2022/04/21 11:43:21;;;;;;;11.27;7.00;;;;;;;;;;5007685;28;20393;-68
2022/04/21 11:46:00;;;;;;;13.93;6.70;;;;;;;;;;5009742;28;20041;-68
2022/04/21 11:48:30;;;;;;;12.98;6.22;;;;;;;;;;5009730;28;20542;-68
2022/04/21 11:50:56;;;;;;;12.75;5.93;;;;;;;;;;5004116;28;20469;-67
2022/04/21 11:53:22;;;;;;;13.43;5.90;;;;;;;;;;5004178;28;20049;-68
2022/04/21 11:55:49;;;;;;;13.27;6.57;;;;;;;;;;5009280;28;20053;-68
2022/04/21 11:58:30;;;;;;;12.90;5.80;;;;;;;;;;5007190;28;20417;-68
2022/04/21 12:06:53;;;;;;;12.23;5.82;;;;;;;;;;5004522;28;20052;-68
2022/04/21 12:09:25;;;;;;;11.05;6.15;;;;;;;;;;5010888;28;20026;-68
2022/04/21 12:11:58;;;;;;;9.50;5.90;;;;;;;;;;5013136;28;20038;-68
2022/04/21 12:14:25;;;;;;;15.40;5.38;;;;;;;;;;5009800;28;20032;-68
2022/04/21 12:17:01;;;;;;;9.80;5.45;;;;;;;;;;5009398;28;20042;-67
2022/04/21 12:19:38;;;;;;;7.80;4.03;;;;;;;;;;5001376;28;20448;-68
2022/04/21 12:22:13;;;;;;;7.88;4.45;;;;;;;;;;5009661;28;20042;-68
2022/04/21 12:24:43;;;;;;;9.45;4.78;;;;;;;;;;5009754;28;20486;-68
2022/04/21 12:27:36;;;;;;;9.23;4.00;;;;;;;;;;5008552;28;20065;-68
2022/04/21 12:30:07;;;;;;;7.53;4.22;;;;;;;;;;5000786;28;20068;-68
2022/04/21 12:32:34;;;;;;;14.23;4.90;;;;;;;;;;5009257;28;20045;-67
2022/04/21 12:35:03;;;;;;;6.47;4.05;;;;;;;;;;5005727;28;20073;-68
2022/04/21 12:37:38;;;;;;;11.60;5.13;;;;;;;;;;5006836;28;20087;-68
2022/04/21 12:40:14;;;;;;;9.55;4.88;;;;;;;;;;5025474;28;20042;-68
2022/04/21 12:42:40;;;;;;;13.95;4.85;;;;;;;;;;5008651;28;20381;-68
2022/04/21 12:45:07;;;;;;;8.90;4.78;;;;;;;;;;5016923;28;20382;-68
2022/04/21 12:47:50;;;;;;;11.15;4.10;;;;;;;;;;5009213;28;20034;-68
2022/04/21 12:50:22;;;;;;;10.07;5.03;;;;;;;;;;5001915;28;20038;-67
2022/04/21 12:52:49;;;;;;;9.27;4.60;;;;;;;;;;5000339;28;20030;-68
2022/04/21 12:55:18;;;;;;;11.98;5.07;;;;;;;;;;5009654;28;20109;-68
2022/04/21 12:58:00;;;;;;;7.72;5.13;;;;;;;;;;5009758;28;20042;-68
2022/04/21 13:00:26;;;;;;;13.88;5.43;;;;;;;;;;5009625;28;20065;-69
2022/04/21 13:02:51;;;;;;;7.40;4.85;;;;;;;;;;5009337;28;20478;-68
2022/04/21 13:05:17;;;;;;;10.00;5.30;;;;;;;;;;5013596;28;20393;-68
2022/04/21 13:07:42;;;;;;;7.30;4.55;;;;;;;;;;5013253;28;20045;-68
2022/04/21 13:10:08;;;;;;;8.45;4.65;;;;;;;;;;5013176;28;20440;-68
2022/04/21 13:12:33;;;;;;;10.00;4.65;;;;;;;;;;5013102;28;20026;-68
2022/04/21 13:14:59;;;;;;;11.48;5.50;;;;;;;;;;5012789;28;20041;-68
2022/04/21 13:17:25;;;;;;;9.25;4.97;;;;;;;;;;5011628;28;20057;-68
2022/04/21 13:19:50;;;;;;;8.40;4.18;;;;;;;;;;5012170;28;20398;-68
2022/04/21 13:22:16;;;;;;;10.05;4.57;;;;;;;;;;5012816;28;20041;-67
2022/04/21 13:24:41;;;;;;;7.55;4.78;;;;;;;;;;5009693;28;20046;-68
2022/04/21 13:27:07;;;;;;;11.20;4.45;;;;;;;;;;5000664;28;20029;-67
2022/04/21 13:29:33;;;;;;;11.98;4.95;;;;;;;;;;5011115;28;20113;-68
2022/04/21 13:34:43;;;;;;;8.45;4.30;;;;;;;;;;5010052;28;20040;-68
2022/04/21 13:37:09;;;;;;;10.48;4.40;;;;;;;;;;5012459;28;20049;-67
2022/04/21 13:39:36;;;;;;;9.45;4.20;;;;;;;;;;5012911;28;20037;-68
2022/04/21 13:42:02;;;;;;;7.40;3.92;;;;;;;;;;5011377;28;20141;-68
2022/04/21 13:44:28;;;;;;;5.72;3.85;;;;;;;;;;5012399;28;20045;-68
2022/04/21 13:46:54;;;;;;;8.35;3.85;;;;;;;;;;5008631;28;20030;-67
2022/04/21 13:49:20;;;;;;;6.80;4.38;;;;;;;;;;5012155;28;20433;-68
2022/04/21 13:51:45;;;;;;;10.30;5.00;;;;;;;;;;5024486;28;20041;-67
2022/04/21 13:54:13;;;;;;;6.35;3.88;;;;;;;;;;5015724;28;20088;-68
2022/04/21 13:56:39;;;;;;;9.52;4.05;;;;;;;;;;5009325;28;20045;-67
2022/04/21 13:59:04;;;;;;;7.25;4.00;;;;;;;;;;5003032;28;20048;-68
2022/04/21 14:01:30;;;;;;;7.18;3.50;;;;;;;;;;5011637;28;20072;-68
2022/04/21 14:03:56;;;;;;;6.38;3.75;;;;;;;;;;5011625;28;20045;-68
2022/04/21 14:06:24;;;;;;;9.73;3.72;;;;;;;;;;5011611;28;20095;-67
2022/04/21 14:08:49;;;;;;;8.73;3.80;;;;;;;;;;5011214;28;20104;-68
2022/04/21 14:11:18;;;;;;;7.80;4.00;;;;;;;;;;5012070;28;20460;-67
2022/04/21 14:13:44;;;;;;;8.35;3.85;;;;;;;;;;5011114;28;20052;-68
2022/04/21 14:16:10;;;;;;;7.22;4.15;;;;;;;;;;5010832;28;20037;-68
2022/04/21 14:18:36;;;;;;;7.70;3.42;;;;;;;;;;5011007;28;20034;-68
2022/04/21 14:21:02;;;;;;;7.95;4.10;;;;;;;;;;5010496;28;20474;-68
2022/04/21 14:23:33;;;;;;;6.07;3.25;;;;;;;;;;5007766;28;20037;-68
2022/04/21 14:25:59;;;;;;;11.38;3.88;;;;;;;;;;5007703;28;20030;-68
2022/04/21 14:28:25;;;;;;;8.70;3.10;;;;;;;;;;5005973;28;20030;-68
2022/04/21 14:30:51;;;;;;;11.85;3.22;;;;;;;;;;5007790;28;20163;-68
2022/04/21 14:33:16;;;;;;;6.55;3.78;;;;;;;;;;5006696;28;20140;-68
2022/04/21 14:35:41;;;;;;;13.55;4.40;;;;;;;;;;5010436;28;21420;-68
2022/04/21 14:46:18;;;;;;;;;;;;;;;;;;5011065;28;20060;-67
2022/04/21 14:48:44;;;;;;;7.72;3.50;;;;;;;;;;5006650;28;19956;-68
2022/04/21 14:51:10;;;;;;;8.50;3.10;;;;;;;;;;5010206;28;20034;-68
2022/04/21 14:53:35;;;;;;;7.28;3.03;;;;;;;;;;5011275;28;20030;-68
2022/04/21 14:56:01;;;;;;;8.75;3.70;;;;;;;;;;5010554;28;20561;-68
2022/04/21 14:58:26;;;;;;;6.88;3.80;;;;;;;;;;5010214;28;20026;-68
2022/04/21 15:00:51;;;;;;;7.68;3.83;;;;;;;;;;5010106;28;20164;-68
2022/04/21 15:03:17;;;;;;;9.15;2.90;;;;;;;;;;5010626;28;20042;-67
2022/04/21 15:05:42;;;;;;;6.88;3.35;;;;;;;;;;5010959;28;20030;-68
2022/04/21 15:08:09;;;;;;;9.55;3.30;;;;;;;;;;5010474;28;20403;-68
2022/04/21 15:10:37;;;;;;;4.70;3.33;;;;;;;;;;5011782;28;20066;-68
2022/04/21 15:13:06;;;;;;;7.18;3.10;;;;;;;;;;5010014;28;20041;-68
2022/04/21 15:15:32;;;;;;;7.15;2.78;;;;;;;;;;5009842;28;20397;-68
2022/04/21 15:17:57;;;;;;;8.25;3.20;;;;;;;;;;5010281;28;20033;-68
2022/04/21 15:20:23;;;;;;;5.38;2.97;;;;;;;;;;5010815;28;20033;-67
2022/04/21 15:22:48;;;;;;;7.63;3.40;;;;;;;;;;5010180;28;20472;-68
2022/04/21 15:25:13;;;;;;;5.47;2.38;;;;;;;;;;5010324;28;20034;-67
2022/04/21 15:27:39;;;;;;;7.20;3.08;;;;;;;;;;5009515;28;20087;-68
2022/04/21 15:30:05;;;;;;;7.53;3.20;;;;;;;;;;5010127;28;20069;-68
2022/04/21 15:32:31;;;;;;;8.00;2.90;;;;;;;;;;5009547;28;20073;-68
2022/04/21 15:34:57;;;;;;;4.93;2.47;;;;;;;;;;5010850;28;20060;-68
2022/04/21 15:37:23;;;;;;;8.38;3.13;;;;;;;;;;5010491;28;20041;-68
2022/04/21 15:39:49;;;;;;;8.85;3.03;;;;;;;;;;5006218;28;20528;-68
2022/04/21 15:42:14;;;;;;;9.63;2.83;;;;;;;;;;5009395;28;20083;-67